createdAt,value
2018-02-21T00:00:21.710Z,51.09
2018-02-21T00:02:50.081Z,51.35
2018-02-21T00:05:18.468Z,50.96
2018-02-21T00:07:46.836Z,52.01
2018-02-21T00:10:15.214Z,51.49
2018-02-21T00:12:43.572Z,51.97
2018-02-21T00:15:11.951Z,52.13
2018-02-21T00:17:40.312Z,51.89
2018-02-21T00:20:09.098Z,52.22
2018-02-21T00:22:38.723Z,52.06
2018-02-21T00:25:07.459Z,51.44
2018-02-21T00:27:35.926Z,51.71
2018-02-21T00:30:04.328Z,50.78
2018-02-21T00:32:32.684Z,52.02
2018-02-21T00:35:01.053Z,51.23
2018-02-21T00:37:29.419Z,50.64
2018-02-21T00:39:57.794Z,49.99
2018-02-21T00:42:26.160Z,50.57
2018-02-21T00:44:54.519Z,51.90
2018-02-21T00:47:23.279Z,51.87
2018-02-21T00:49:51.652Z,51.27
2018-02-21T00:52:19.999Z,53.28
2018-02-21T00:54:48.373Z,51.49
2018-02-21T00:57:16.740Z,50.72
2018-02-21T00:59:45.103Z,51.13
2018-02-21T01:02:14.176Z,51.79
2018-02-21T01:04:42.553Z,50.82
2018-02-21T01:07:10.920Z,51.87
2018-02-21T01:09:39.302Z,52.67
2018-02-21T01:12:07.677Z,53.01
2018-02-21T01:14:36.042Z,52.38
2018-02-21T01:17:04.420Z,52.77
2018-02-21T01:19:32.820Z,52.61
2018-02-21T01:22:01.181Z,52.53
2018-02-21T01:24:29.566Z,52.43
2018-02-21T01:26:57.935Z,51.88
2018-02-21T01:29:26.310Z,51.14
2018-02-21T01:31:54.667Z,52.85
2018-02-21T01:34:23.032Z,52.44
2018-02-21T01:36:51.404Z,52.86
2018-02-21T01:39:20.216Z,52.58
2018-02-21T01:41:48.588Z,52.92
2018-02-21T01:44:16.950Z,53.26
2018-02-21T01:46:45.319Z,52.54
2018-02-21T01:49:14.069Z,53.00
2018-02-21T01:51:42.453Z,53.11
2018-02-21T01:54:10.814Z,52.32
2018-02-21T01:56:39.213Z,51.87
2018-02-21T01:59:07.587Z,52.54
2018-02-21T02:01:35.968Z,52.42
2018-02-21T02:04:04.333Z,54.06
2018-02-21T02:06:32.696Z,54.57
2018-02-21T02:09:01.068Z,52.58
2018-02-21T02:11:29.446Z,53.26
2018-02-21T02:13:57.840Z,54.52
2018-02-21T02:16:26.220Z,53.84
2018-02-21T02:18:54.597Z,52.65
2018-02-21T02:21:22.966Z,53.04
2018-02-21T02:23:51.359Z,52.96
2018-02-21T02:26:19.733Z,52.19
2018-02-21T02:28:48.128Z,53.42
2018-02-21T02:31:16.510Z,53.90
2018-02-21T02:33:44.872Z,54.43
2018-02-21T02:36:13.252Z,52.99
2018-02-21T02:38:42.272Z,52.44
2018-02-21T02:41:10.736Z,53.35
2018-02-21T02:43:39.105Z,53.02
2018-02-21T02:46:07.484Z,53.60
2018-02-21T02:48:35.848Z,53.55
2018-02-21T02:51:04.225Z,52.72
2018-02-21T02:53:32.619Z,52.44
2018-02-21T02:56:01.005Z,52.50
2018-02-21T02:58:29.373Z,52.73
2018-02-21T03:00:57.761Z,52.42
2018-02-21T03:03:26.143Z,53.29
2018-02-21T03:05:54.521Z,53.03
2018-02-21T03:08:22.913Z,52.96
2018-02-21T03:10:51.297Z,52.85
2018-02-21T03:13:19.657Z,53.17
2018-02-21T03:15:48.050Z,53.12
2018-02-21T03:18:16.417Z,54.29
2018-02-21T03:20:44.796Z,53.23
2018-02-21T03:23:13.157Z,53.94
2018-02-21T03:25:41.528Z,53.79
2018-02-21T03:28:09.900Z,55.52
2018-02-21T03:30:38.285Z,54.68
2018-02-21T03:33:06.664Z,53.57
2018-02-21T03:35:35.040Z,53.84
2018-02-21T03:38:03.404Z,53.26
2018-02-21T03:40:32.173Z,53.18
2018-02-21T03:43:00.929Z,53.79
2018-02-21T03:45:29.306Z,53.25
2018-02-21T03:47:57.700Z,53.38
2018-02-21T03:50:26.077Z,53.09
2018-02-21T03:52:54.435Z,52.46
2018-02-21T03:55:22.818Z,52.78
2018-02-21T03:57:51.204Z,53.31
2018-02-21T04:00:19.560Z,52.80
2018-02-21T04:02:47.937Z,52.70
2018-02-21T04:05:16.310Z,53.43
2018-02-21T04:07:44.689Z,54.19
2018-02-21T04:10:13.059Z,53.14
2018-02-21T04:12:41.446Z,52.97
2018-02-21T04:15:09.859Z,52.48
2018-02-21T04:17:38.253Z,53.18
2018-02-21T04:20:06.600Z,52.84
2018-02-21T04:22:35.021Z,53.13
2018-02-21T04:25:03.472Z,52.54
2018-02-21T04:27:31.840Z,53.84
2018-02-21T04:30:00.232Z,54.54
2018-02-21T04:32:28.596Z,53.89
2018-02-21T04:34:57.052Z,53.71
2018-02-21T04:37:25.418Z,53.37
2018-02-21T04:39:53.772Z,54.08
2018-02-21T04:42:22.232Z,53.43
2018-02-21T04:44:50.588Z,53.27
2018-02-21T04:47:18.953Z,54.25
2018-02-21T04:49:47.365Z,53.37
2018-02-21T04:52:15.835Z,53.27
2018-02-21T04:54:49.731Z,54.18
2018-02-21T04:57:19.039Z,54.75
2018-02-21T04:59:47.604Z,55.04
2018-02-21T05:02:15.969Z,55.58
2018-02-21T05:04:44.345Z,54.19
2018-02-21T05:07:12.693Z,54.64
2018-02-21T05:09:41.048Z,53.67
2018-02-21T05:12:09.431Z,53.13
2018-02-21T05:14:37.797Z,53.64
2018-02-21T05:17:06.163Z,55.61
2018-02-21T05:19:34.569Z,56.25
2018-02-21T05:22:02.933Z,56.66
2018-02-21T05:24:31.345Z,56.47
2018-02-21T05:26:59.723Z,55.38
2018-02-21T05:29:28.483Z,56.00
2018-02-21T05:31:56.876Z,55.80
2018-02-21T05:34:25.248Z,54.64
2018-02-21T05:36:53.611Z,56.27
2018-02-21T05:39:21.964Z,55.49
2018-02-21T05:41:50.341Z,55.51
2018-02-21T05:44:18.706Z,56.27
2018-02-21T05:46:47.456Z,56.98
2018-02-21T05:49:15.837Z,56.24
2018-02-21T05:51:44.197Z,55.38
2018-02-21T05:54:12.555Z,56.09
2018-02-21T05:56:40.952Z,55.06
2018-02-21T05:59:09.370Z,56.12
2018-02-21T06:01:37.825Z,57.99
2018-02-21T06:04:06.221Z,58.82
2018-02-21T06:06:34.776Z,56.88
2018-02-21T06:09:03.127Z,57.88
2018-02-21T06:11:31.540Z,57.58
2018-02-21T06:13:59.921Z,57.34
2018-02-21T06:16:28.314Z,56.17
2018-02-21T06:18:56.684Z,57.43
2018-02-21T06:21:25.036Z,56.26
2018-02-21T06:23:53.432Z,55.57
2018-02-21T06:26:21.844Z,56.87
2018-02-21T06:28:50.221Z,56.01
2018-02-21T06:31:19.471Z,55.29
2018-02-21T06:33:47.881Z,55.38
2018-02-21T06:36:16.264Z,55.14
2018-02-21T06:38:44.620Z,55.68
2018-02-21T06:41:12.977Z,55.29
2018-02-21T06:43:41.367Z,54.82
2018-02-21T06:46:09.730Z,54.35
2018-02-21T06:48:38.103Z,54.41
2018-02-21T06:51:06.515Z,52.85
2018-02-21T06:53:34.873Z,51.42
2018-02-21T06:56:03.232Z,50.31
2018-02-21T06:58:31.943Z,46.75
2018-02-21T07:01:00.335Z,45.33
2018-02-21T07:03:28.696Z,46.20
2018-02-21T07:05:57.104Z,45.82
2018-02-21T07:08:25.457Z,46.82
2018-02-21T07:10:53.828Z,48.73
2018-02-21T07:13:22.208Z,48.49
2018-02-21T07:15:50.560Z,48.87
2018-02-21T07:18:19.410Z,48.63
2018-02-21T07:20:47.798Z,49.62
2018-02-21T07:23:16.160Z,49.68
2018-02-21T07:25:44.550Z,49.45
2018-02-21T07:28:13.021Z,48.51
2018-02-21T07:30:41.376Z,48.41
2018-02-21T07:33:09.771Z,47.65
2018-02-21T07:35:38.124Z,47.95
2018-02-21T07:38:06.571Z,49.79
2018-02-21T07:40:35.080Z,48.11
2018-02-21T07:43:03.481Z,44.97
2018-02-21T07:45:31.849Z,44.61
2018-02-21T07:48:00.202Z,40.92
2018-02-21T07:50:28.962Z,38.38
2018-02-21T07:52:57.329Z,38.04
2018-02-21T07:55:25.720Z,35.96
2018-02-21T07:57:54.072Z,34.61
2018-02-21T08:00:22.460Z,32.86
2018-02-21T08:02:50.840Z,31.38
2018-02-21T08:05:19.192Z,31.71
2018-02-21T08:07:47.569Z,31.34
2018-02-21T08:10:15.929Z,30.90
2018-02-21T08:12:44.763Z,31.84
2018-02-21T08:15:13.116Z,32.06
2018-02-21T08:17:41.484Z,32.81
2018-02-21T08:20:09.855Z,33.01
2018-02-21T08:22:38.253Z,30.90
2018-02-21T08:25:06.632Z,30.01
2018-02-21T08:27:35.680Z,30.01
2018-02-21T08:30:04.132Z,27.92
2018-02-21T08:32:32.646Z,29.76
2018-02-21T08:35:01.007Z,30.73
2018-02-21T08:37:29.384Z,30.29
2018-02-21T08:39:57.741Z,30.09
2018-02-21T08:42:26.100Z,29.63
2018-02-21T08:44:54.488Z,29.66
2018-02-21T08:47:22.968Z,28.20
2018-02-21T08:49:51.432Z,27.68
2018-02-21T08:52:19.903Z,28.68
2018-02-21T08:54:48.362Z,27.06
2018-02-21T08:57:17.328Z,26.23
2018-02-21T08:59:45.784Z,26.36
2018-02-21T09:02:14.260Z,26.92
2018-02-21T09:04:42.739Z,27.47
2018-02-21T09:07:11.519Z,27.87
2018-02-21T09:09:39.977Z,27.83
2018-02-21T09:12:08.833Z,27.95
2018-02-21T09:14:37.597Z,27.49
2018-02-21T09:17:06.062Z,26.73
2018-02-21T09:19:34.504Z,25.83
2018-02-21T09:22:02.977Z,25.75
2018-02-21T09:24:31.821Z,25.02
2018-02-21T09:27:00.264Z,25.31
2018-02-21T09:29:29.112Z,24.92
2018-02-21T09:31:57.553Z,25.33
2018-02-21T09:34:26.052Z,24.85
2018-02-21T09:36:54.497Z,24.81
2018-02-21T09:39:22.978Z,24.93
2018-02-21T09:41:51.904Z,24.10
2018-02-21T09:44:20.361Z,24.37
2018-02-21T09:46:48.827Z,25.03
2018-02-21T09:49:17.344Z,25.70
2018-02-21T09:51:45.831Z,26.32
2018-02-21T09:54:14.277Z,26.71
2018-02-21T09:56:43.112Z,26.20
2018-02-21T09:59:11.578Z,25.96
2018-02-21T10:01:40.023Z,25.52
2018-02-21T10:04:08.956Z,24.58
2018-02-21T10:06:37.416Z,24.18
2018-02-21T10:09:05.857Z,26.16
2018-02-21T10:11:34.300Z,27.09
2018-02-21T10:14:02.776Z,27.41
2018-02-21T10:16:31.270Z,28.12
2018-02-21T10:19:01.259Z,28.79
2018-02-21T10:21:29.709Z,29.25
2018-02-21T10:23:58.604Z,30.50
2018-02-21T10:26:27.061Z,29.94
2018-02-21T10:28:55.518Z,30.00
2018-02-21T10:31:23.974Z,29.04
2018-02-21T10:33:52.424Z,30.54
2018-02-21T10:36:21.283Z,30.27
2018-02-21T10:38:49.816Z,29.85
2018-02-21T10:41:18.296Z,30.67
2018-02-21T10:43:46.798Z,29.27
2018-02-21T10:46:15.250Z,28.71
2018-02-21T10:48:43.754Z,29.21
2018-02-21T10:51:12.576Z,29.16
2018-02-21T10:53:41.023Z,28.65
2018-02-21T10:56:09.523Z,30.34
2018-02-21T10:58:37.983Z,29.49
2018-02-21T11:01:12.014Z,30.52
2018-02-21T11:03:40.502Z,30.46
2018-02-21T11:06:08.959Z,30.55
2018-02-21T11:08:37.404Z,28.96
2018-02-21T11:11:06.280Z,27.84
2018-02-21T11:13:34.731Z,27.64
2018-02-21T11:16:03.192Z,27.69
2018-02-21T11:18:31.660Z,29.25
2018-02-21T11:21:00.778Z,30.96
2018-02-21T11:23:29.279Z,32.63
2018-02-21T11:25:57.716Z,32.47
2018-02-21T11:28:26.289Z,32.18
2018-02-21T11:30:55.124Z,31.80
2018-02-21T11:33:23.588Z,32.79
2018-02-21T11:35:52.063Z,33.69
2018-02-21T11:38:21.630Z,34.43
2018-02-21T11:40:50.084Z,34.22
2018-02-21T11:43:18.557Z,32.99
2018-02-21T11:45:47.004Z,32.85
2018-02-21T11:48:15.454Z,33.86
2018-02-21T11:50:44.321Z,35.24
2018-02-21T11:53:12.781Z,34.79
2018-02-21T11:55:41.244Z,36.40
2018-02-21T11:58:09.716Z,35.07
2018-02-21T12:00:38.156Z,33.92
2018-02-21T12:03:06.598Z,34.39
2018-02-21T12:05:35.084Z,34.96
2018-02-21T12:08:03.528Z,35.42
2018-02-21T12:10:32.367Z,34.87
2018-02-21T12:13:00.830Z,35.34
2018-02-21T12:15:29.281Z,34.85
2018-02-21T12:17:57.734Z,36.27
2018-02-21T12:20:26.216Z,37.99
2018-02-21T12:22:54.652Z,38.65
2018-02-21T12:25:23.109Z,38.03
2018-02-21T12:27:51.571Z,37.41
2018-02-21T12:30:20.404Z,36.95
2018-02-21T12:32:49.046Z,37.27
2018-02-21T12:35:17.497Z,36.10
2018-02-21T12:37:46.705Z,37.14
2018-02-21T12:40:21.043Z,37.94
2018-02-21T12:42:49.913Z,38.70
2018-02-21T12:45:18.360Z,38.35
2018-02-21T12:47:46.810Z,36.96
2018-02-21T12:50:15.254Z,36.52
2018-02-21T12:52:43.711Z,36.57
2018-02-21T12:55:12.164Z,37.53
2018-02-21T12:57:40.616Z,35.25
2018-02-21T13:00:09.476Z,35.73
2018-02-21T13:02:37.941Z,35.89
2018-02-21T13:05:06.386Z,36.23
2018-02-21T13:07:35.445Z,36.53
2018-02-21T13:10:03.887Z,37.21
2018-02-21T13:12:32.345Z,37.61
2018-02-21T13:15:00.852Z,36.38
2018-02-21T13:17:29.293Z,34.92
2018-02-21T13:19:58.148Z,34.61
2018-02-21T13:22:26.600Z,36.36
2018-02-21T13:24:55.048Z,37.24
2018-02-21T13:27:23.908Z,35.86
2018-02-21T13:29:52.356Z,36.65
2018-02-21T13:32:20.822Z,35.30
2018-02-21T13:34:49.264Z,34.61
2018-02-21T13:37:18.118Z,34.18
2018-02-21T13:39:46.588Z,33.65
2018-02-21T13:42:15.037Z,33.34
2018-02-21T13:44:43.495Z,32.90
2018-02-21T13:47:12.353Z,32.11
2018-02-21T13:49:40.803Z,32.31
2018-02-21T13:52:09.257Z,31.07
2018-02-21T13:54:38.113Z,32.60
2018-02-21T13:57:06.554Z,32.82
2018-02-21T13:59:34.996Z,33.05
2018-02-21T14:02:03.862Z,32.03
2018-02-21T14:04:32.309Z,32.53
2018-02-21T14:07:00.761Z,33.77
2018-02-21T14:09:29.617Z,32.96
2018-02-21T14:11:58.081Z,32.17
2018-02-21T14:14:26.541Z,32.04
2018-02-21T14:16:55.042Z,31.99
2018-02-21T14:19:23.485Z,32.64
2018-02-21T14:21:51.925Z,33.93
2018-02-21T14:24:20.386Z,34.92
2018-02-21T14:26:48.836Z,34.29
2018-02-21T14:29:17.267Z,34.02
2018-02-21T14:31:45.828Z,34.29
2018-02-21T14:34:14.276Z,34.19
2018-02-21T14:36:42.747Z,34.43
2018-02-21T14:39:11.589Z,34.34
2018-02-21T14:41:40.045Z,33.87
2018-02-21T14:44:08.541Z,34.73
2018-02-21T14:46:36.995Z,33.99
2018-02-21T14:49:05.463Z,33.65
2018-02-21T14:51:33.951Z,34.19
2018-02-21T14:54:02.384Z,33.99
2018-02-21T14:56:31.060Z,34.91
2018-02-21T14:58:59.504Z,35.46
2018-02-21T15:01:27.957Z,34.17
2018-02-21T15:03:56.808Z,34.96
2018-02-21T15:06:25.264Z,35.27
2018-02-21T15:08:53.704Z,35.68
2018-02-21T15:11:22.580Z,34.80
2018-02-21T15:13:51.061Z,34.97
2018-02-21T15:16:25.418Z,35.92
2018-02-21T15:18:53.889Z,36.56
2018-02-21T15:21:23.048Z,36.25
2018-02-21T15:23:51.514Z,36.94
2018-02-21T15:26:19.974Z,36.67
2018-02-21T15:28:48.508Z,36.59
2018-02-21T15:31:17.355Z,36.64
2018-02-21T15:33:45.792Z,37.39
2018-02-21T15:36:14.648Z,37.74
2018-02-21T15:38:43.157Z,38.00
2018-02-21T15:41:11.565Z,37.50
2018-02-21T15:43:40.041Z,38.32
2018-02-21T15:46:08.484Z,39.00
2018-02-21T15:48:37.353Z,38.69
2018-02-21T15:51:05.828Z,39.31
2018-02-21T15:53:34.286Z,39.57
2018-02-21T15:56:02.881Z,39.54
2018-02-21T15:58:31.361Z,39.04
2018-02-21T16:00:59.815Z,39.58
2018-02-21T16:03:28.260Z,39.61
2018-02-21T16:05:56.719Z,39.82
2018-02-21T16:08:25.197Z,39.63
2018-02-21T16:10:53.628Z,39.51
2018-02-21T16:13:23.545Z,39.33
2018-02-21T16:15:52.376Z,40.41
2018-02-21T16:18:20.819Z,39.66
2018-02-21T16:20:49.368Z,39.33
2018-02-21T16:23:17.853Z,39.60
2018-02-21T16:25:47.012Z,41.08
2018-02-21T16:28:15.489Z,39.89
2018-02-21T16:30:43.944Z,40.77
2018-02-21T16:33:12.408Z,41.08
2018-02-21T16:35:41.361Z,40.38
2018-02-21T16:38:09.970Z,39.86
2018-02-21T16:40:38.399Z,38.85
2018-02-21T16:43:06.888Z,39.39
2018-02-21T16:45:35.405Z,39.52
2018-02-21T16:48:03.872Z,38.85
2018-02-21T16:50:32.376Z,38.33
2018-02-21T16:53:00.885Z,38.59
2018-02-21T16:55:29.384Z,39.47
2018-02-21T16:57:57.899Z,39.17
2018-02-21T17:00:27.195Z,40.00
2018-02-21T17:02:54.957Z,40.11
2018-02-21T17:05:23.475Z,39.55
2018-02-21T17:07:52.392Z,38.95
2018-02-21T17:10:20.980Z,39.17
2018-02-21T17:12:49.470Z,38.35
2018-02-21T17:15:17.977Z,38.84
2018-02-21T17:17:46.502Z,38.22
2018-02-21T17:20:15.366Z,38.95
2018-02-21T17:22:43.876Z,39.48
2018-02-21T17:25:12.431Z,39.56
2018-02-21T17:27:40.905Z,39.41
2018-02-21T17:30:09.421Z,39.49
2018-02-21T17:32:38.386Z,39.30
2018-02-21T17:35:06.912Z,39.27
2018-02-21T17:37:35.636Z,39.06
2018-02-21T17:40:04.137Z,38.92
2018-02-21T17:42:33.508Z,39.33
2018-02-21T17:45:01.963Z,39.62
2018-02-21T17:47:30.833Z,39.49
2018-02-21T17:49:59.412Z,39.14
2018-02-21T17:52:27.866Z,39.65
2018-02-21T17:54:56.414Z,39.62
2018-02-21T17:57:24.897Z,39.96
2018-02-21T17:59:53.368Z,39.23
2018-02-21T18:02:21.888Z,39.15
2018-02-21T18:04:50.409Z,39.71
2018-02-21T18:07:19.249Z,39.29
2018-02-21T18:09:47.721Z,39.23
2018-02-21T18:12:16.192Z,39.48
2018-02-21T18:14:44.668Z,38.94
2018-02-21T18:17:13.145Z,39.50
2018-02-21T18:19:41.603Z,39.31
2018-02-21T18:22:10.457Z,39.27
2018-02-21T18:24:38.935Z,39.09
2018-02-21T18:27:07.423Z,39.63
2018-02-21T18:29:35.882Z,40.19
2018-02-21T18:32:04.341Z,40.12
2018-02-21T18:34:32.843Z,40.39
2018-02-21T18:37:01.328Z,40.88
2018-02-21T18:39:29.820Z,41.88
2018-02-21T18:41:58.300Z,41.79
2018-02-21T18:44:26.753Z,41.44
2018-02-21T18:46:55.222Z,41.24
2018-02-21T18:49:24.118Z,40.57
2018-02-21T18:51:52.577Z,40.92
2018-02-21T18:54:21.231Z,42.23
2018-02-21T18:56:50.415Z,43.41
2018-02-21T18:59:18.878Z,43.26
2018-02-21T19:01:47.342Z,44.24
2018-02-21T19:04:15.841Z,42.86
2018-02-21T19:06:45.781Z,44.20
2018-02-21T19:09:14.264Z,44.14
2018-02-21T19:11:44.385Z,43.79
2018-02-21T19:14:12.928Z,42.99
2018-02-21T19:16:41.429Z,43.44
2018-02-21T19:19:09.963Z,43.40
2018-02-21T19:21:38.843Z,42.92
2018-02-21T19:24:07.302Z,43.49
2018-02-21T19:26:35.817Z,42.98
2018-02-21T19:29:04.743Z,44.65
2018-02-21T19:31:33.241Z,43.80
2018-02-21T19:34:01.852Z,43.76
2018-02-21T19:36:30.342Z,43.88
2018-02-21T19:38:59.206Z,43.40
2018-02-21T19:41:28.486Z,44.16
2018-02-21T19:43:57.020Z,44.94
2018-02-21T19:46:25.632Z,46.12
2018-02-21T19:48:54.643Z,45.79
2018-02-21T19:51:23.132Z,46.07
2018-02-21T19:53:51.613Z,45.93
2018-02-21T19:56:20.161Z,45.85
2018-02-21T19:58:49.223Z,45.84
2018-02-21T20:01:17.740Z,46.37
2018-02-21T20:03:46.617Z,46.99
2018-02-21T20:06:15.500Z,46.84
2018-02-21T20:08:44.029Z,47.44
2018-02-21T20:11:12.517Z,47.98
2018-02-21T20:13:41.101Z,47.76
2018-02-21T20:16:09.617Z,48.57
2018-02-21T20:18:38.488Z,48.88
2018-02-21T20:21:06.997Z,48.67
2018-02-21T20:23:35.915Z,49.03
2018-02-21T20:26:04.826Z,50.39
2018-02-21T20:28:33.333Z,50.59
2018-02-21T20:31:01.975Z,50.42
2018-02-21T20:33:30.478Z,50.01
2018-02-21T20:35:59.392Z,51.16
2018-02-21T20:38:27.991Z,51.41
2018-02-21T20:40:56.527Z,50.93
2018-02-21T20:43:25.125Z,50.99
2018-02-21T20:45:53.726Z,52.79
2018-02-21T20:48:22.238Z,53.33
2018-02-21T20:50:50.732Z,55.01
2018-02-21T20:53:19.607Z,52.83
2018-02-21T20:55:48.132Z,52.62
2018-02-21T20:58:16.798Z,54.05
2018-02-21T21:00:45.526Z,53.32
2018-02-21T21:03:14.065Z,51.56
2018-02-21T21:05:42.608Z,50.14
2018-02-21T21:08:11.138Z,50.57
2018-02-21T21:10:40.349Z,51.55
2018-02-21T21:20:12.021Z,55.97
2018-02-21T21:22:40.553Z,55.46
2018-02-21T21:25:09.051Z,54.49
2018-02-21T21:27:37.542Z,53.23
2018-02-21T21:30:06.002Z,54.37
2018-02-21T21:32:34.474Z,55.23
2018-02-21T21:35:02.949Z,54.55
2018-02-21T21:37:31.471Z,56.13
2018-02-21T21:39:59.947Z,56.85
2018-02-21T21:42:28.437Z,55.80
2018-02-21T21:44:57.036Z,55.98
2018-02-21T21:47:25.550Z,55.46
2018-02-21T21:49:54.025Z,54.84
2018-02-21T21:52:22.995Z,54.04
2018-02-21T21:54:51.503Z,56.52
2018-02-21T21:57:20.266Z,58.37
2018-02-21T21:59:48.822Z,57.30
2018-02-21T22:02:18.064Z,57.13
2018-02-21T22:04:47.121Z,56.72
2018-02-21T22:07:15.697Z,54.88
2018-02-21T22:09:44.333Z,55.49
2018-02-21T22:12:12.827Z,56.59
2018-02-21T22:14:41.386Z,57.91
2018-02-21T22:17:10.277Z,56.54
2018-02-21T22:19:39.130Z,55.68
2018-02-21T22:22:07.588Z,55.00
2018-02-21T22:24:36.069Z,54.52
2018-02-21T22:27:04.549Z,54.10
2018-02-21T22:29:33.041Z,54.69
2018-02-21T22:32:01.496Z,57.19
2018-02-21T22:34:30.044Z,57.22
2018-02-21T22:36:58.893Z,56.64
2018-02-21T22:39:27.319Z,56.78
2018-02-21T22:41:56.164Z,57.03
2018-02-21T22:44:24.644Z,56.28
2018-02-21T22:46:53.136Z,55.80
2018-02-21T22:49:21.584Z,57.79
2018-02-21T22:51:50.131Z,58.55
2018-02-21T22:54:18.985Z,57.65
2018-02-21T22:56:47.460Z,59.34
2018-02-21T22:59:16.037Z,58.35
2018-02-21T23:01:44.628Z,58.96
2018-02-21T23:04:13.068Z,58.71
2018-02-21T23:06:41.504Z,57.92
2018-02-21T23:09:10.057Z,57.84
2018-02-21T23:11:38.593Z,59.92
2018-02-21T23:14:07.428Z,60.66
2018-02-21T23:16:36.940Z,60.00
2018-02-21T23:19:05.396Z,59.25
2018-02-21T23:21:33.832Z,58.58
2018-02-21T23:24:02.376Z,58.04
2018-02-21T23:26:30.855Z,60.34
2018-02-21T23:28:59.296Z,58.68
2018-02-21T23:31:28.232Z,58.11
2018-02-21T23:33:56.668Z,58.53
2018-02-21T23:36:25.605Z,59.34
2018-02-21T23:38:54.089Z,59.50
2018-02-21T23:41:22.528Z,60.21
2018-02-21T23:43:51.496Z,59.09
2018-02-21T23:46:20.044Z,58.15
2018-02-21T23:48:48.524Z,57.46
2018-02-21T23:51:17.008Z,56.48
2018-02-21T23:53:45.455Z,58.25
2018-02-21T23:56:14.491Z,57.42
2018-02-21T23:58:42.967Z,58.04
